createdAt,value
2022-09-18T00:01:45.501Z,55.94
2022-09-18T00:04:15.482Z,55.95
2022-09-18T00:06:46.628Z,55.94
2022-09-18T00:09:16.948Z,56.07
2022-09-18T00:11:51.257Z,56.14
2022-09-18T00:14:23.130Z,56.02
2022-09-18T00:16:52.574Z,56.02
2022-09-18T00:19:22.392Z,56.44
2022-09-18T00:21:52.910Z,56.96
2022-09-18T00:24:24.384Z,57.18
2022-09-18T00:26:54.971Z,56.92
2022-09-18T00:29:24.323Z,57.29
2022-09-18T00:31:53.574Z,57.03
2022-09-18T00:34:22.838Z,57.31
2022-09-18T00:36:53.402Z,57.52
2022-09-18T00:39:23.518Z,57.01
2022-09-18T00:41:54.174Z,57.47
2022-09-18T00:44:38.852Z,57.26
2022-09-18T00:47:23.969Z,57.10
2022-09-18T00:50:00.720Z,57.00
2022-09-18T00:52:46.106Z,56.75
2022-09-18T00:55:16.472Z,57.00
2022-09-18T00:57:52.538Z,56.81
2022-09-18T01:00:22.526Z,56.74
2022-09-18T01:02:51.913Z,56.71
2022-09-18T01:05:31.986Z,56.55
2022-09-18T01:08:17.054Z,56.63
2022-09-18T01:11:03.857Z,56.74
2022-09-18T01:13:44.666Z,56.93
2022-09-18T01:16:23.834Z,57.12
2022-09-18T01:19:03.573Z,57.11
2022-09-18T01:21:39.028Z,57.36
2022-09-18T01:24:46.313Z,57.56
2022-09-18T01:27:28.441Z,57.74
2022-09-18T01:30:06.153Z,57.92
2022-09-18T01:32:42.650Z,57.55
2022-09-18T01:38:17.229Z,57.55
2022-09-18T01:40:50.684Z,57.29
2022-09-18T01:43:22.639Z,57.48
2022-09-18T01:45:58.589Z,57.71
2022-09-18T01:48:40.075Z,57.56
2022-09-18T01:51:21.489Z,57.41
2022-09-18T01:53:55.760Z,57.62
2022-09-18T01:56:29.230Z,58.14
2022-09-18T01:59:04.884Z,57.90
2022-09-18T02:01:45.626Z,58.01
2022-09-18T02:04:23.215Z,57.86
2022-09-18T02:07:00.714Z,58.11
2022-09-18T02:09:31.245Z,57.92
2022-09-18T02:12:04.937Z,58.38
2022-09-18T02:14:40.209Z,58.20
2022-09-18T02:17:35.596Z,58.00
2022-09-18T02:20:13.898Z,58.36
2022-09-18T02:22:45.857Z,58.33
2022-09-18T02:25:21.409Z,58.88
2022-09-18T02:27:53.689Z,58.99
2022-09-18T02:30:23.075Z,58.74
2022-09-18T02:32:56.927Z,58.60
2022-09-18T02:35:35.057Z,59.06
2022-09-18T02:38:15.619Z,58.91
2022-09-18T02:41:01.341Z,59.22
2022-09-18T02:43:41.586Z,59.55
2022-09-18T02:46:24.983Z,59.25
2022-09-18T02:49:04.344Z,59.51
2022-09-18T02:51:47.178Z,59.15
2022-09-18T02:54:26.694Z,59.04
2022-09-18T02:57:06.781Z,59.01
2022-09-18T02:59:41.223Z,59.28
2022-09-18T03:02:14.449Z,58.83
2022-09-18T03:04:46.118Z,59.10
2022-09-18T03:07:21.093Z,59.25
2022-09-18T03:09:52.315Z,59.37
2022-09-18T03:12:21.473Z,59.12
2022-09-18T03:14:51.250Z,59.26
2022-09-18T03:17:20.637Z,58.80
2022-09-18T03:19:51.615Z,59.09
2022-09-18T03:22:20.752Z,59.14
2022-09-18T03:24:50.837Z,59.20
2022-09-18T03:27:20.657Z,59.42
2022-09-18T03:29:50.235Z,59.31
2022-09-18T03:32:22.648Z,59.50
2022-09-18T03:34:55.025Z,59.95
2022-09-18T03:37:24.653Z,59.45
2022-09-18T03:39:54.855Z,59.59
2022-09-18T03:42:24.234Z,59.80
2022-09-18T03:44:53.512Z,59.74
2022-09-18T03:47:33.013Z,60.02
2022-09-18T03:50:08.094Z,60.01
2022-09-18T03:52:39.325Z,59.97
2022-09-18T03:55:21.285Z,60.10
2022-09-18T03:57:59.459Z,59.92
2022-09-18T04:00:48.825Z,60.27
2022-09-18T04:03:27.227Z,60.22
2022-09-18T04:06:16.314Z,60.32
2022-09-18T04:09:08.641Z,60.25
2022-09-18T04:11:45.926Z,60.30
2022-09-18T04:14:15.638Z,60.71
2022-09-18T04:16:45.311Z,60.85
2022-09-18T04:19:14.593Z,60.87
2022-09-18T04:21:45.410Z,61.31
2022-09-18T04:24:15.694Z,61.17
2022-09-18T04:26:45.362Z,61.10
2022-09-18T04:29:15.490Z,61.89
2022-09-18T04:31:44.728Z,61.52
2022-09-18T04:34:20.203Z,61.96
2022-09-18T04:36:51.505Z,61.89
2022-09-18T04:39:21.025Z,61.79
2022-09-18T04:41:50.589Z,62.44
2022-09-18T04:44:21.366Z,62.09
2022-09-18T04:46:53.895Z,62.43
2022-09-18T04:49:23.138Z,62.53
2022-09-18T04:51:53.977Z,62.57
2022-09-18T04:54:23.237Z,63.18
2022-09-18T04:56:52.633Z,63.07
2022-09-18T04:59:23.142Z,62.94
2022-09-18T05:01:56.454Z,63.41
2022-09-18T05:04:25.689Z,63.23
2022-09-18T05:07:09.965Z,63.66
2022-09-18T05:09:39.250Z,63.98
2022-09-18T05:12:10.721Z,63.32
2022-09-18T05:14:42.152Z,63.37
2022-09-18T05:17:14.940Z,63.59
2022-09-18T05:19:55.322Z,63.48
2022-09-18T05:22:28.809Z,63.80
2022-09-18T05:24:57.958Z,63.90
2022-09-18T05:27:27.224Z,63.45
2022-09-18T05:29:58.101Z,63.34
2022-09-18T05:32:38.440Z,63.23
2022-09-18T05:35:08.350Z,62.84
2022-09-18T05:37:38.933Z,63.37
2022-09-18T05:40:09.734Z,63.12
2022-09-18T05:42:45.717Z,63.27
2022-09-18T05:45:16.880Z,63.15
2022-09-18T05:47:56.363Z,63.39
2022-09-18T05:50:27.344Z,63.24
2022-09-18T05:53:03.547Z,63.53
2022-09-18T05:55:42.066Z,64.02
2022-09-18T05:58:15.682Z,64.05
2022-09-18T06:00:46.177Z,64.01
2022-09-18T06:03:23.459Z,64.36
2022-09-18T06:05:55.112Z,64.47
2022-09-18T06:08:26.451Z,64.70
2022-09-18T06:10:56.446Z,64.85
2022-09-18T06:13:25.753Z,65.10
2022-09-18T06:15:57.548Z,65.11
2022-09-18T06:18:41.301Z,65.57
2022-09-18T06:21:14.910Z,65.34
2022-09-18T06:23:46.861Z,65.29
2022-09-18T06:26:26.138Z,65.68
2022-09-18T06:28:55.283Z,66.68
2022-09-18T06:31:24.488Z,66.13
2022-09-18T06:34:02.079Z,66.36
2022-09-18T06:36:31.359Z,66.88
2022-09-18T06:39:22.101Z,66.58
2022-09-18T06:41:56.274Z,67.16
2022-09-18T06:44:48.249Z,67.24
2022-09-18T06:47:19.105Z,67.69
2022-09-18T06:49:49.649Z,67.68
2022-09-18T06:52:19.665Z,67.57
2022-09-18T06:54:50.871Z,67.17
2022-09-18T06:57:33.319Z,67.09
2022-09-18T07:00:04.956Z,66.94
2022-09-18T07:02:39.416Z,66.12
2022-09-18T07:05:28.532Z,65.29
2022-09-18T07:07:58.021Z,66.44
2022-09-18T07:10:30.729Z,66.01
2022-09-18T07:13:02.431Z,65.17
2022-09-18T07:15:35.854Z,65.45
2022-09-18T07:18:09.337Z,63.39
2022-09-18T07:20:38.574Z,64.11
2022-09-18T07:23:07.829Z,63.74
2022-09-18T07:25:47.987Z,62.75
2022-09-18T07:28:17.778Z,59.66
2022-09-18T07:30:57.870Z,60.38
2022-09-18T07:33:27.124Z,60.17
2022-09-18T07:36:00.714Z,59.33
2022-09-18T07:38:30.567Z,59.07
2022-09-18T07:41:05.388Z,58.82
2022-09-18T07:43:36.181Z,57.84
2022-09-18T07:46:08.203Z,55.87
2022-09-18T07:48:38.894Z,55.34
2022-09-18T07:51:28.413Z,54.92
2022-09-18T07:54:00.456Z,54.85
2022-09-18T07:56:51.345Z,53.85
2022-09-18T07:59:24.879Z,53.33
2022-09-18T08:01:59.851Z,53.59
2022-09-18T08:04:34.186Z,52.81
2022-09-18T08:07:32.301Z,52.20
2022-09-18T08:10:31.047Z,52.13
2022-09-18T08:13:13.665Z,51.14
2022-09-18T08:16:05.692Z,49.57
2022-09-18T08:19:03.874Z,49.41
2022-09-18T08:21:53.252Z,48.66
2022-09-18T08:24:24.696Z,48.95
2022-09-18T08:26:57.306Z,48.53
2022-09-18T08:29:28.514Z,48.23
2022-09-18T08:32:09.548Z,47.78
2022-09-18T08:34:39.863Z,47.04
2022-09-18T08:37:09.124Z,44.74
2022-09-18T08:40:09.136Z,44.21
2022-09-18T08:42:53.255Z,42.87
2022-09-18T08:45:39.824Z,41.85
2022-09-18T08:48:17.244Z,41.59
2022-09-18T08:50:55.857Z,41.02
2022-09-18T08:53:32.462Z,40.22
2022-09-18T08:56:28.966Z,41.11
2022-09-18T08:59:27.530Z,39.73
2022-09-18T09:02:17.304Z,38.53
2022-09-18T09:04:48.420Z,39.08
2022-09-18T09:07:40.558Z,37.55
2022-09-18T09:10:43.359Z,36.58
2022-09-18T09:13:42.504Z,35.41
2022-09-18T09:16:18.051Z,36.27
2022-09-18T09:19:00.755Z,35.89
2022-09-18T09:21:54.126Z,33.55
2022-09-18T09:24:31.422Z,33.44
2022-09-18T09:27:21.807Z,33.53
2022-09-18T09:30:05.897Z,34.87
2022-09-18T09:32:53.650Z,33.75
2022-09-18T09:35:54.744Z,34.68
2022-09-18T09:38:47.216Z,33.06
2022-09-18T09:41:27.108Z,33.67
2022-09-18T09:44:07.284Z,33.92
2022-09-18T09:46:56.230Z,34.12
2022-09-18T09:49:28.637Z,34.35
2022-09-18T09:52:10.178Z,34.72
2022-09-18T09:54:40.492Z,34.47
2022-09-18T09:57:26.071Z,34.00
2022-09-18T10:00:11.340Z,33.63
2022-09-18T10:03:25.317Z,33.79
2022-09-18T10:06:05.986Z,34.35
2022-09-18T10:08:45.521Z,33.62
2022-09-18T10:11:16.455Z,33.81
2022-09-18T10:13:56.417Z,34.42
2022-09-18T10:16:36.630Z,33.97
2022-09-18T10:19:13.958Z,34.15
2022-09-18T10:21:45.585Z,34.67
2022-09-18T10:24:25.856Z,34.50
2022-09-18T10:27:03.380Z,34.19
2022-09-18T10:29:35.875Z,34.46
2022-09-18T10:32:08.135Z,34.38
2022-09-18T10:34:45.261Z,33.58
2022-09-18T10:37:19.243Z,33.57
2022-09-18T10:39:57.808Z,33.45
2022-09-18T10:42:29.789Z,33.27
2022-09-18T10:45:29.237Z,32.58
2022-09-18T10:48:17.042Z,32.67
2022-09-18T10:50:54.603Z,32.17
2022-09-18T10:53:34.149Z,32.23
2022-09-18T10:56:31.329Z,32.11
2022-09-18T10:59:35.662Z,32.39
2022-09-18T11:02:07.933Z,32.02
2022-09-18T11:04:38.448Z,31.93
2022-09-18T11:07:08.309Z,31.49
2022-09-18T11:09:41.691Z,30.84
2022-09-18T11:12:22.216Z,30.04
2022-09-18T11:15:02.395Z,30.15
2022-09-18T11:17:36.472Z,30.54
2022-09-18T11:20:08.616Z,29.23
2022-09-18T11:22:47.725Z,29.47
2022-09-18T11:25:36.659Z,29.91
2022-09-18T11:28:24.611Z,29.75
2022-09-18T11:31:00.318Z,30.32
2022-09-18T11:33:33.789Z,30.02
2022-09-18T11:36:10.275Z,29.21
2022-09-18T11:38:44.233Z,29.13
2022-09-18T11:41:22.261Z,28.47
2022-09-18T11:44:04.938Z,28.56
2022-09-18T11:46:48.249Z,28.78
2022-09-18T11:49:23.204Z,28.05
2022-09-18T11:52:00.502Z,27.80
2022-09-18T11:54:53.870Z,26.98
2022-09-18T11:57:29.565Z,28.39
2022-09-18T12:00:08.190Z,27.92
2022-09-18T12:02:53.626Z,28.76
2022-09-18T12:05:30.577Z,29.31
2022-09-18T12:08:12.526Z,29.65
2022-09-18T12:10:56.476Z,30.74
2022-09-18T12:13:41.305Z,31.06
2022-09-18T12:16:19.281Z,30.89
2022-09-18T12:19:01.652Z,30.64
2022-09-18T12:21:41.227Z,30.95
2022-09-18T12:24:15.303Z,31.21
2022-09-18T12:27:11.427Z,31.11
2022-09-18T12:30:11.185Z,29.80
2022-09-18T12:33:19.076Z,29.73
2022-09-18T12:36:21.130Z,29.01
2022-09-18T12:39:12.779Z,29.15
2022-09-18T12:41:57.714Z,30.53
2022-09-18T12:44:48.765Z,31.53
2022-09-18T12:47:44.177Z,32.03
2022-09-18T12:50:49.630Z,32.03
2022-09-18T12:53:36.242Z,31.85
2022-09-18T12:56:24.388Z,31.65
2022-09-18T12:59:36.354Z,30.03
2022-09-18T13:02:23.472Z,30.37
2022-09-18T13:04:58.053Z,30.22
2022-09-18T13:07:35.021Z,30.25
2022-09-18T13:10:15.790Z,29.81
2022-09-18T13:12:53.129Z,29.79
2022-09-18T13:15:28.737Z,30.24
2022-09-18T13:18:16.215Z,30.02
2022-09-18T13:20:47.321Z,29.93
2022-09-18T13:23:22.642Z,30.00
2022-09-18T13:25:53.138Z,30.21
2022-09-18T13:28:24.792Z,30.19
2022-09-18T13:31:24.334Z,30.40
2022-09-18T13:33:57.474Z,30.38
2022-09-18T13:36:29.925Z,29.83
2022-09-18T13:39:04.342Z,29.58
2022-09-18T13:41:45.716Z,28.30
2022-09-18T13:44:21.832Z,28.33
2022-09-18T13:46:53.784Z,27.90
2022-09-18T13:49:29.976Z,27.29
2022-09-18T13:52:30.497Z,27.07
2022-09-18T13:55:38.193Z,27.65
2022-09-18T13:58:49.015Z,27.70
2022-09-18T14:01:59.982Z,27.67
2022-09-18T14:05:10.354Z,27.96
2022-09-18T14:08:11.462Z,28.05
2022-09-18T14:11:14.553Z,28.08
2022-09-18T14:13:51.545Z,27.94
2022-09-18T14:16:41.436Z,27.97
2022-09-18T14:19:40.408Z,28.18
2022-09-18T14:22:26.087Z,28.24
2022-09-18T14:25:01.071Z,29.13
2022-09-18T14:27:40.614Z,28.74
2022-09-18T14:30:20.504Z,28.61
2022-09-18T14:33:17.207Z,28.41
2022-09-18T14:35:57.025Z,28.14
2022-09-18T14:38:33.581Z,29.06
2022-09-18T14:41:19.437Z,29.40
2022-09-18T14:43:56.602Z,28.77
2022-09-18T14:46:28.118Z,29.10
2022-09-18T14:48:57.741Z,29.17
2022-09-18T14:51:29.539Z,29.42
2022-09-18T14:54:00.560Z,29.75
2022-09-18T14:56:35.209Z,30.16
2022-09-18T14:59:15.001Z,30.60
2022-09-18T15:01:44.226Z,29.97
2022-09-18T15:04:19.161Z,29.53
2022-09-18T15:06:51.237Z,29.73
2022-09-18T15:09:27.013Z,29.46
2022-09-18T15:12:02.551Z,29.51
2022-09-18T15:14:45.556Z,29.97
2022-09-18T15:17:23.600Z,29.71
2022-09-18T15:20:02.124Z,29.43
2022-09-18T15:22:31.998Z,29.99
2022-09-18T15:25:02.092Z,30.71
2022-09-18T15:27:32.644Z,31.63
2022-09-18T15:30:06.666Z,31.78
2022-09-18T15:32:42.540Z,32.66
2022-09-18T15:35:21.202Z,33.75
2022-09-18T15:38:00.876Z,34.76
2022-09-18T15:40:35.515Z,35.18
2022-09-18T15:43:07.182Z,35.71
2022-09-18T15:45:38.605Z,36.34
2022-09-18T15:48:44.556Z,37.47
2022-09-18T15:51:17.778Z,37.39
2022-09-18T15:54:07.683Z,38.40
2022-09-18T15:56:39.707Z,38.25
2022-09-18T15:59:19.657Z,38.45
2022-09-18T16:01:50.425Z,38.05
2022-09-18T16:04:24.015Z,39.16
2022-09-18T16:06:58.281Z,39.10
2022-09-18T16:09:41.597Z,39.57
2022-09-18T16:12:39.932Z,39.74
2022-09-18T16:15:23.203Z,39.81
2022-09-18T16:18:06.072Z,40.27
2022-09-18T16:20:40.834Z,40.81
2022-09-18T16:23:31.831Z,40.60
2022-09-18T16:26:13.221Z,40.64
2022-09-18T16:28:45.715Z,40.67
2022-09-18T16:31:16.316Z,40.96
2022-09-18T16:33:55.586Z,40.15
2022-09-18T16:36:31.161Z,39.49
2022-09-18T16:39:02.713Z,39.23
2022-09-18T16:41:33.745Z,39.30
2022-09-18T16:44:04.198Z,39.68
2022-09-18T16:46:42.353Z,39.96
2022-09-18T16:49:17.159Z,40.35
2022-09-18T16:51:46.427Z,40.07
2022-09-18T16:54:15.716Z,39.79
2022-09-18T16:56:51.691Z,40.63
2022-09-18T16:59:22.011Z,40.97
2022-09-18T17:02:03.435Z,42.13
2022-09-18T17:04:35.422Z,43.29
2022-09-18T17:07:06.437Z,43.32
2022-09-18T17:09:36.122Z,43.45
2022-09-18T17:12:05.627Z,43.71
2022-09-18T17:14:35.872Z,43.54
2022-09-18T17:17:06.322Z,43.45
2022-09-18T17:19:37.530Z,43.57
2022-09-18T17:22:06.718Z,43.54
2022-09-18T17:24:35.895Z,43.47
2022-09-18T17:27:05.532Z,44.03
2022-09-18T17:29:36.012Z,44.63
2022-09-18T17:32:06.480Z,45.07
2022-09-18T17:34:37.278Z,45.82
2022-09-18T17:37:06.505Z,45.93
2022-09-18T17:39:35.694Z,46.40
2022-09-18T17:42:05.110Z,46.77
2022-09-18T17:44:35.443Z,46.82
2022-09-18T17:47:05.152Z,47.32
2022-09-18T17:49:34.617Z,47.13
2022-09-18T17:52:06.311Z,47.07
2022-09-18T17:54:36.352Z,46.86
2022-09-18T17:57:11.467Z,47.04
2022-09-18T17:59:42.083Z,47.37
2022-09-18T18:02:13.936Z,47.66
2022-09-18T18:04:43.101Z,47.57
2022-09-18T18:07:13.624Z,47.71
2022-09-18T18:09:42.701Z,47.79
2022-09-18T18:12:11.933Z,48.29
2022-09-18T18:14:41.738Z,48.45
2022-09-18T18:17:11.684Z,48.83
2022-09-18T18:19:40.834Z,48.85
2022-09-18T18:22:09.915Z,49.07
2022-09-18T18:24:40.447Z,48.83
2022-09-18T18:27:09.546Z,49.31
2022-09-18T18:29:41.060Z,49.51
2022-09-18T18:32:11.134Z,49.65
2022-09-18T18:34:40.448Z,49.90
2022-09-18T18:37:09.627Z,50.34
2022-09-18T18:39:40.221Z,50.43
2022-09-18T18:42:09.756Z,50.35
2022-09-18T18:44:40.247Z,50.36
2022-09-18T18:47:09.602Z,50.48
2022-09-18T18:49:38.794Z,51.17
2022-09-18T18:52:08.028Z,50.94
2022-09-18T18:54:37.332Z,51.37
2022-09-18T18:57:08.098Z,52.07
2022-09-18T18:59:37.325Z,51.67
2022-09-18T19:02:06.611Z,52.39
2022-09-18T19:04:36.465Z,52.65
2022-09-18T19:07:06.611Z,52.76
2022-09-18T19:09:36.437Z,53.13
2022-09-18T19:12:07.372Z,53.51
2022-09-18T19:14:38.452Z,53.42
2022-09-18T19:17:10.091Z,53.89
2022-09-18T19:19:39.325Z,53.92
2022-09-18T19:22:13.085Z,54.58
2022-09-18T19:24:42.293Z,54.30
2022-09-18T19:27:12.964Z,54.50
2022-09-18T19:29:42.459Z,54.94
2022-09-18T19:32:12.077Z,54.72
2022-09-18T19:34:41.192Z,55.06
2022-09-18T19:37:11.821Z,55.48
2022-09-18T19:39:47.240Z,55.30
2022-09-18T19:42:18.237Z,55.15
2022-09-18T19:44:50.093Z,55.51
2022-09-18T19:47:25.862Z,55.67
2022-09-18T19:49:56.870Z,55.82
2022-09-18T19:52:29.221Z,55.79
2022-09-18T19:55:00.323Z,56.07
2022-09-18T19:57:31.053Z,56.80
2022-09-18T20:00:01.288Z,56.31
2022-09-18T20:02:30.726Z,56.25
2022-09-18T20:05:01.543Z,56.61
2022-09-18T20:07:31.505Z,56.48
2022-09-18T20:10:00.787Z,57.25
2022-09-18T20:12:35.325Z,57.95
2022-09-18T20:15:05.654Z,58.06
2022-09-18T20:17:35.310Z,58.03
2022-09-18T20:20:08.761Z,58.18
2022-09-18T20:22:40.104Z,58.30
2022-09-18T20:25:11.283Z,58.19
2022-09-18T20:27:43.524Z,58.19
2022-09-18T20:30:13.729Z,58.52
2022-09-18T20:32:43.237Z,58.30
2022-09-18T20:35:12.563Z,58.63
2022-09-18T20:37:41.875Z,58.74
2022-09-18T20:40:12.716Z,58.96
2022-09-18T20:42:51.560Z,58.69
2022-09-18T20:45:21.735Z,58.65
2022-09-18T20:47:51.472Z,58.55
2022-09-18T20:50:23.826Z,58.82
2022-09-18T20:52:53.175Z,58.63
2022-09-18T20:55:22.655Z,58.74
2022-09-18T20:57:57.326Z,59.16
2022-09-18T21:00:29.119Z,59.01
2022-09-18T21:02:58.457Z,58.96
2022-09-18T21:05:29.799Z,58.80
2022-09-18T21:08:00.963Z,58.87
2022-09-18T21:10:31.695Z,58.81
2022-09-18T21:13:02.421Z,58.82
2022-09-18T21:15:32.107Z,58.96
2022-09-18T21:18:01.600Z,58.90
2022-09-18T21:20:31.487Z,58.86
2022-09-18T21:23:18.412Z,59.02
2022-09-18T21:25:47.637Z,58.71
2022-09-18T21:28:20.417Z,58.54
2022-09-18T21:30:49.795Z,58.35
2022-09-18T21:33:20.147Z,58.43
2022-09-18T21:35:54.966Z,58.65
2022-09-18T21:38:25.535Z,58.54
2022-09-18T21:41:02.240Z,58.57
2022-09-18T21:43:34.071Z,58.52
2022-09-18T21:46:04.665Z,58.60
2022-09-18T21:48:35.478Z,58.56
2022-09-18T21:51:05.207Z,58.60
2022-09-18T21:53:35.691Z,58.63
2022-09-18T21:56:08.104Z,58.44
2022-09-18T21:58:40.820Z,59.01
2022-09-18T22:01:15.796Z,58.86
2022-09-18T22:03:50.555Z,59.08
2022-09-18T22:06:21.305Z,59.17
2022-09-18T22:08:52.585Z,59.12
2022-09-18T22:11:24.832Z,59.49
2022-09-18T22:13:58.192Z,59.52
2022-09-18T22:16:29.559Z,59.71
2022-09-18T22:18:59.144Z,59.78
2022-09-18T22:21:31.145Z,60.05
2022-09-18T22:24:06.552Z,59.85
2022-09-18T22:26:38.656Z,60.07
2022-09-18T22:29:14.719Z,60.17
2022-09-18T22:31:46.556Z,60.04
2022-09-18T22:34:18.715Z,60.40
2022-09-18T22:36:49.351Z,60.43
2022-09-18T22:39:20.943Z,60.43
2022-09-18T22:41:51.550Z,60.42
2022-09-18T22:44:22.844Z,60.35
2022-09-18T22:46:53.785Z,60.33
2022-09-18T22:49:24.675Z,60.57
2022-09-18T22:51:54.820Z,60.43
2022-09-18T22:54:24.989Z,60.33
2022-09-18T22:56:56.983Z,60.56
2022-09-18T22:59:29.246Z,60.64
2022-09-18T23:02:02.409Z,60.81
2022-09-18T23:04:34.431Z,60.64
2022-09-18T23:07:04.610Z,60.85
2022-09-18T23:09:34.015Z,60.56
2022-09-18T23:12:03.880Z,60.82
2022-09-18T23:14:34.419Z,61.21
2022-09-18T23:17:03.598Z,60.75
2022-09-18T23:19:35.518Z,60.98
2022-09-18T23:22:05.203Z,60.84
2022-09-18T23:24:34.324Z,60.63
2022-09-18T23:27:03.460Z,60.56
2022-09-18T23:29:35.486Z,60.89
2022-09-18T23:32:04.910Z,61.11
2022-09-18T23:34:34.620Z,60.96
2022-09-18T23:37:04.002Z,61.02
2022-09-18T23:39:34.992Z,61.40
2022-09-18T23:42:05.922Z,61.33
2022-09-18T23:44:36.521Z,61.29
2022-09-18T23:47:05.789Z,61.53
2022-09-18T23:49:35.344Z,61.69
2022-09-18T23:52:05.213Z,61.43
2022-09-18T23:54:34.458Z,61.69
2022-09-18T23:57:03.586Z,61.77
2022-09-18T23:59:32.876Z,61.71
